Time;durP1;ratioP1;P1;durP2;ratioP2;P2;SDS_P1;SDS_P2;PMS_P1;PMS_P2;Temp;Humidity;BMP_temperature;BMP_pressure;BME280_temperature;BME280_humidity;BME280_pressure;Samples;Min_cycle;Max_cycle;Signal;HPM_P1;HPM_P2
2023/10/24 00:02:18;;;;;;;10.05;3.75;;;;;;;10.74;89.36;97856.19;5074582;28;20145;-79
2023/10/24 00:04:43;;;;;;;9.43;3.58;;;;;;;10.91;88.96;97851.28;5077798;28;20079;-79
2023/10/24 00:07:09;;;;;;;8.18;3.42;;;;;;;10.55;90.08;97839.97;5073674;28;20051;-79
2023/10/24 00:09:34;;;;;;;8.52;3.78;;;;;;;10.77;89.26;97836.94;5075499;28;20035;-79
2023/10/24 00:11:59;;;;;;;8.30;3.65;;;;;;;10.62;89.93;97834.34;5079675;28;20058;-79
2023/10/24 00:14:25;;;;;;;13.35;4.40;;;;;;;10.85;89.10;97848.91;5051946;28;20032;-79
2023/10/24 00:16:50;;;;;;;6.82;3.20;;;;;;;10.72;89.54;97844.19;5052696;28;20118;-79
2023/10/24 00:19:15;;;;;;;10.55;4.10;;;;;;;10.48;90.08;97849.34;5083831;28;20111;-78
2023/10/24 00:21:41;;;;;;;9.70;2.92;;;;;;;10.80;89.13;97848.94;5078893;28;20036;-79
2023/10/24 00:24:06;;;;;;;10.13;3.25;;;;;;;10.85;88.96;97851.59;5085818;28;20028;-79
2023/10/24 00:26:32;;;;;;;6.13;3.63;;;;;;;10.87;88.86;97857.44;5078444;28;20023;-79
2023/10/24 00:28:57;;;;;;;8.80;3.78;;;;;;;10.55;90.88;97847.16;5082693;28;20062;-79
2023/10/24 00:31:22;;;;;;;8.75;3.63;;;;;;;10.65;89.79;97843.66;5068868;28;20037;-79
2023/10/24 00:33:48;;;;;;;9.10;3.72;;;;;;;10.66;89.76;97845.28;5078361;28;20031;-79
2023/10/24 00:36:13;;;;;;;9.10;3.72;;;;;;;10.73;89.56;97851.09;5083492;28;20055;-79
2023/10/24 00:38:39;;;;;;;7.22;3.20;;;;;;;10.85;89.64;97854.25;5082499;28;20115;-79
2023/10/24 00:41:04;;;;;;;8.07;3.05;;;;;;;10.81;88.96;97851.31;5074934;28;20032;-79
2023/10/24 00:43:30;;;;;;;6.63;3.47;;;;;;;10.74;89.62;97836.69;5079046;28;20025;-79
2023/10/24 00:45:55;;;;;;;6.13;3.40;;;;;;;10.64;90.05;97826.06;5054943;28;20023;-79
2023/10/24 00:48:21;;;;;;;7.20;3.60;;;;;;;10.74;89.73;97826.03;5050651;28;20494;-79
2023/10/24 00:50:46;;;;;;;4.68;3.00;;;;;;;10.75;89.81;97816.91;5083503;28;20040;-79
2023/10/24 00:53:12;;;;;;;7.25;3.95;;;;;;;10.42;91.05;97813.06;5082434;28;20154;-79
2023/10/24 00:55:39;;;;;;;5.18;2.60;;;;;;;10.80;89.86;97825.72;5066332;28;20096;-79
2023/10/24 00:58:06;;;;;;;10.05;3.67;;;;;;;10.82;89.58;97820.91;5082714;28;20387;-79
2023/10/24 01:00:34;;;;;;;9.35;3.72;;;;;;;10.87;88.82;97809.41;5076165;28;20557;-79
2023/10/24 01:03:02;;;;;;;6.45;3.15;;;;;;;10.81;89.10;97799.84;5087469;28;20071;-79
2023/10/24 01:05:27;;;;;;;6.00;3.05;;;;;;;10.78;89.14;97795.84;5077066;28;20364;-79
2023/10/24 01:07:53;;;;;;;4.40;2.67;;;;;;;10.92;88.57;97801.38;5077350;28;20043;-78
2023/10/24 01:10:18;;;;;;;6.28;2.92;;;;;;;11.03;88.26;97811.69;5058050;28;20231;-79
2023/10/24 01:12:44;;;;;;;8.30;3.03;;;;;;;11.05;88.06;97809.53;5077866;28;20067;-79
2023/10/24 01:15:10;;;;;;;7.05;3.10;;;;;;;11.08;87.70;97818.88;5083764;28;20077;-79
2023/10/24 01:17:47;;;;;;;5.97;2.90;;;;;;;11.10;87.82;97816.72;5079240;28;20041;-79
2023/10/24 01:20:12;;;;;;;8.77;3.00;;;;;;;11.09;87.58;97825.84;5084302;28;20514;-79
2023/10/24 01:22:38;;;;;;;7.13;2.95;;;;;;;11.10;87.71;97822.88;5081082;28;20059;-79
2023/10/24 01:25:11;;;;;;;5.13;3.45;;;;;;;10.92;87.55;97822.72;5067356;28;20316;-78
2023/10/24 01:27:40;;;;;;;6.35;2.70;;;;;;;10.92;87.90;97836.84;5081326;28;20069;-78
2023/10/24 01:30:06;;;;;;;6.85;3.83;;;;;;;11.01;87.83;97831.72;5083026;28;20080;-78
2023/10/24 01:32:31;;;;;;;10.27;3.40;;;;;;;11.07;87.02;97836.00;5070859;28;20032;-79
2023/10/24 01:34:56;;;;;;;5.78;3.38;;;;;;;10.95;87.44;97833.66;5077002;28;20039;-78
2023/10/24 01:37:22;;;;;;;8.38;3.35;;;;;;;10.90;87.60;97833.66;5079328;28;20033;-79
2023/10/24 01:39:47;;;;;;;7.82;3.15;;;;;;;10.86;87.63;97823.81;5086286;28;20479;-78
2023/10/24 01:42:12;;;;;;;8.35;3.88;;;;;;;10.92;87.50;97833.41;5086786;28;20399;-78
2023/10/24 01:44:38;;;;;;;10.95;4.10;;;;;;;10.95;87.51;97822.16;5079216;28;20113;-78
2023/10/24 01:47:03;;;;;;;6.18;3.30;;;;;;;10.85;87.54;97827.56;5085808;28;20036;-78
2023/10/24 01:49:28;;;;;;;6.70;3.35;;;;;;;10.88;87.88;97827.81;5080427;28;20039;-78
2023/10/24 01:51:54;;;;;;;10.93;3.40;;;;;;;10.92;87.61;97825.41;5065052;28;20531;-78
2023/10/24 01:54:19;;;;;;;8.15;3.20;;;;;;;10.97;86.95;97822.69;5082180;28;20035;-78
2023/10/24 01:56:44;;;;;;;7.13;3.65;;;;;;;10.90;87.24;97814.19;5067944;28;20078;-79
2023/10/24 01:59:10;;;;;;;7.35;3.03;;;;;;;10.88;87.43;97806.44;5081393;28;20063;-79
2023/10/24 02:01:35;;;;;;;6.30;3.03;;;;;;;10.87;87.57;97793.38;5064002;28;20077;-79
2023/10/24 02:04:01;;;;;;;7.68;3.35;;;;;;;10.85;87.68;97800.88;5078223;28;20089;-78
2023/10/24 02:06:26;;;;;;;10.73;4.00;;;;;;;10.82;88.16;97788.88;5064233;28;20755;-78
2023/10/24 02:08:52;;;;;;;5.28;3.60;;;;;;;10.64;88.82;97762.03;5071491;28;20079;-79
2023/10/24 02:11:17;;;;;;;9.27;3.67;;;;;;;10.55;89.48;97759.13;5081234;28;20043;-79
2023/10/24 02:13:42;;;;;;;3.30;2.90;;;;;;;10.50;89.57;97762.63;5083202;28;20047;-78
2023/10/24 02:16:08;;;;;;;3.58;2.70;;;;;;;10.49;89.95;97742.34;5081392;28;20085;-78
2023/10/24 02:18:33;;;;;;;6.97;2.67;;;;;;;10.45;90.30;97751.97;5065980;28;20044;-78
2023/10/24 02:20:58;;;;;;;5.30;2.78;;;;;;;10.43;90.52;97737.31;5084730;28;20047;-78
2023/10/24 02:23:24;;;;;;;13.52;2.83;;;;;;;10.20;91.21;97736.06;5083948;28;20028;-79
2023/10/24 02:25:49;;;;;;;6.07;2.97;;;;;;;10.44;91.13;97749.59;5083523;28;20037;-78
2023/10/24 02:28:14;;;;;;;6.93;3.28;;;;;;;10.45;90.67;97761.84;5077759;28;20596;-78
2023/10/24 02:30:40;;;;;;;5.93;3.45;;;;;;;10.48;89.96;97769.31;5084245;28;20443;-78
2023/10/24 02:33:05;;;;;;;7.28;3.00;;;;;;;10.54;90.13;97766.34;5084413;28;20102;-78
2023/10/24 02:35:31;;;;;;;9.65;3.88;;;;;;;10.51;90.46;97763.41;5065894;28;20021;-78
2023/10/24 02:37:56;;;;;;;7.18;3.67;;;;;;;10.69;89.50;97764.66;5080076;28;20028;-78
2023/10/24 02:40:21;;;;;;;4.07;3.00;;;;;;;10.70;89.58;97767.06;5080386;28;20040;-78
2023/10/24 02:42:47;;;;;;;7.15;2.70;;;;;;;10.56;90.38;97750.06;5079927;28;20127;-78
2023/10/24 02:45:12;;;;;;;5.43;2.83;;;;;;;10.57;90.15;97750.84;5080770;28;20023;-79
2023/10/24 02:47:37;;;;;;;8.63;2.90;;;;;;;10.79;89.25;97759.28;5083277;28;20447;-78
2023/10/24 02:50:03;;;;;;;5.25;2.83;;;;;;;10.78;89.01;97755.00;5087251;28;20028;-78
2023/10/24 02:52:29;;;;;;;4.07;2.75;;;;;;;10.72;89.29;97759.59;5079427;28;20387;-78
2023/10/24 02:54:55;;;;;;;7.95;2.80;;;;;;;10.75;89.14;97750.19;5072966;28;20063;-79
2023/10/24 02:57:21;;;;;;;5.03;3.08;;;;;;;10.67;89.39;97734.78;5082527;28;20032;-79
2023/10/24 02:59:46;;;;;;;4.90;2.72;;;;;;;10.40;89.29;97724.50;5060149;28;20119;-78
2023/10/24 03:02:13;;;;;;;3.85;2.63;;;;;;;10.41;91.17;97742.13;5080543;28;20086;-78
2023/10/24 03:04:38;;;;;;;3.80;2.70;;;;;;;10.50;90.37;97751.97;5064807;28;20043;-78
2023/10/24 03:07:03;;;;;;;4.47;2.60;;;;;;;10.40;90.45;97733.31;5061398;28;20465;-78
2023/10/24 03:09:29;;;;;;;6.85;3.28;;;;;;;10.43;90.09;97731.97;5081864;28;20103;-78
2023/10/24 03:11:54;;;;;;;6.95;3.25;;;;;;;10.44;90.23;97747.69;5059296;28;20047;-79
2023/10/24 03:14:19;;;;;;;4.80;2.58;;;;;;;10.76;88.70;97743.81;5081117;28;20036;-78
2023/10/24 03:16:45;;;;;;;4.70;3.00;;;;;;;10.61;88.89;97739.38;5083422;28;20032;-79
2023/10/24 03:19:10;;;;;;;4.80;2.78;;;;;;;10.63;89.14;97723.88;5082319;28;20449;-78
2023/10/24 03:21:35;;;;;;;7.63;3.28;;;;;;;10.60;89.02;97721.75;5072405;28;20035;-78
2023/10/24 03:24:02;;;;;;;4.43;2.90;;;;;;;10.61;89.85;97726.03;5077192;28;20051;-78
2023/10/24 03:26:27;;;;;;;5.78;3.20;;;;;;;10.52;89.89;97723.13;5080259;28;20024;-78
2023/10/24 03:28:53;;;;;;;5.68;3.30;;;;;;;10.47;90.10;97735.69;5062627;28;20074;-79
2023/10/24 03:31:18;;;;;;;4.30;2.70;;;;;;;10.60;88.83;97734.28;5068992;28;20043;-79
2023/10/24 03:33:44;;;;;;;7.28;2.95;;;;;;;10.46;89.65;97731.44;5082162;28;20028;-79
2023/10/24 03:36:13;;;;;;;5.68;3.10;;;;;;;10.53;89.31;97735.38;5064732;28;20059;-79
2023/10/24 03:38:39;;;;;;;4.82;3.17;;;;;;;10.62;88.84;97716.13;5076949;28;20035;-79
2023/10/24 03:41:04;;;;;;;6.15;3.13;;;;;;;10.63;89.25;97720.41;5081295;28;20385;-79
2023/10/24 03:43:30;;;;;;;3.50;2.90;;;;;;;10.77;88.21;97730.16;5081845;28;20028;-78
2023/10/24 03:45:55;;;;;;;3.50;2.60;;;;;;;10.79;88.42;97716.56;5050950;28;20031;-78
2023/10/24 03:48:20;;;;;;;5.95;3.35;;;;;;;10.76;88.37;97717.91;5075333;28;20020;-78
2023/10/24 03:50:46;;;;;;;7.38;2.95;;;;;;;10.79;87.96;97717.34;5079550;28;20032;-79
2023/10/24 03:53:12;;;;;;;5.68;2.63;;;;;;;10.81;87.54;97699.19;5069479;28;20050;-78
2023/10/24 03:55:37;;;;;;;6.38;2.90;;;;;;;10.91;87.43;97711.66;5079485;28;20032;-78
2023/10/24 03:58:03;;;;;;;5.45;2.78;;;;;;;10.86;87.70;97715.16;5058243;28;20039;-79
2023/10/24 04:00:28;;;;;;;8.20;3.17;;;;;;;10.92;87.36;97718.63;5076391;28;20543;-78
2023/10/24 04:02:54;;;;;;;4.35;2.60;;;;;;;10.70;88.35;97727.03;5075680;28;20038;-78
2023/10/24 04:05:20;;;;;;;5.15;3.05;;;;;;;10.68;88.66;97709.69;5067873;28;20090;-78
2023/10/24 04:07:45;;;;;;;8.32;3.67;;;;;;;10.57;89.53;97724.19;5085392;28;20057;-78
2023/10/24 04:10:15;;;;;;;6.45;3.17;;;;;;;10.49;89.84;97722.88;5069770;28;20063;-78
2023/10/24 04:12:41;;;;;;;5.30;3.72;;;;;;;10.61;88.83;97735.88;5074328;28;20028;-78
2023/10/24 04:15:08;;;;;;;5.43;2.90;;;;;;;10.49;90.13;97726.34;5074815;28;20024;-78
2023/10/24 04:17:33;;;;;;;3.72;2.97;;;;;;;10.63;88.65;97741.75;5070701;28;20107;-78
2023/10/24 04:19:59;;;;;;;6.10;3.35;;;;;;;10.72;88.49;97748.91;5067278;28;20028;-78
2023/10/24 04:22:24;;;;;;;9.20;3.45;;;;;;;10.80;88.35;97766.19;5071231;28;20031;-78
2023/10/24 04:24:50;;;;;;;8.95;3.45;;;;;;;10.76;88.60;97760.63;5056415;28;20051;-78
2023/10/24 04:27:16;;;;;;;8.30;3.45;;;;;;;10.74;88.06;97744.09;5057511;28;20042;-78
2023/10/24 04:29:42;;;;;;;7.43;3.40;;;;;;;10.64;89.06;97751.34;5072948;28;20496;-78
2023/10/24 04:32:07;;;;;;;8.65;3.20;;;;;;;10.78;88.67;97730.97;5063766;28;20146;-79
2023/10/24 04:34:32;;;;;;;4.65;3.08;;;;;;;10.81;88.74;97733.09;5071384;28;20041;-78
2023/10/24 04:36:58;;;;;;;6.35;2.80;;;;;;;10.88;87.78;97731.69;5073212;28;20028;-78
2023/10/24 04:39:24;;;;;;;3.95;2.90;;;;;;;10.91;88.18;97747.19;5075646;28;20036;-78
2023/10/24 04:41:50;;;;;;;5.60;3.05;;;;;;;10.93;87.61;97736.22;5074135;28;20155;-79
2023/10/24 04:44:15;;;;;;;4.70;2.65;;;;;;;10.88;88.05;97739.72;5073251;28;20032;-78
2023/10/24 04:46:41;;;;;;;7.30;2.95;;;;;;;10.82;88.41;97727.47;5074631;28;20038;-79
2023/10/24 04:49:06;;;;;;;6.13;2.70;;;;;;;10.72;88.69;97706.22;5073074;28;20024;-78
2023/10/24 04:51:32;;;;;;;6.25;2.40;;;;;;;10.85;87.70;97700.25;5074095;28;20064;-79
2023/10/24 04:53:57;;;;;;;3.92;2.47;;;;;;;10.83;88.39;97709.59;5081002;28;20040;-79
2023/10/24 04:56:24;;;;;;;3.08;2.53;;;;;;;10.90;88.21;97712.75;5084661;28;20039;-79
2023/10/24 04:58:49;;;;;;;6.70;2.78;;;;;;;10.93;87.92;97722.88;5069900;28;20032;-78
2023/10/24 05:01:15;;;;;;;3.47;2.55;;;;;;;10.88;88.27;97723.69;5082707;28;20044;-78
2023/10/24 05:03:40;;;;;;;6.07;3.13;;;;;;;10.94;88.14;97735.94;5081762;28;20036;-78
2023/10/24 05:06:05;;;;;;;4.90;3.17;;;;;;;10.95;87.97;97732.19;5086716;28;20031;-79
2023/10/24 05:08:31;;;;;;;3.85;2.67;;;;;;;11.06;87.68;97743.59;5085502;28;20025;-78
2023/10/24 05:10:57;;;;;;;4.03;2.60;;;;;;;10.97;87.71;97745.25;5082734;28;20055;-79
2023/10/24 05:13:22;;;;;;;3.30;3.00;;;;;;;10.94;87.76;97725.25;5071483;28;20430;-78
2023/10/24 05:15:47;;;;;;;5.18;2.30;;;;;;;11.05;87.58;97739.34;5070746;28;20033;-78
2023/10/24 05:18:13;;;;;;;3.55;3.25;;;;;;;10.98;88.33;97738.84;5065631;28;20079;-78
2023/10/24 05:20:39;;;;;;;12.10;3.50;;;;;;;10.95;88.74;97739.41;5071091;28;20021;-78
2023/10/24 05:23:05;;;;;;;2.72;2.33;;;;;;;10.99;88.20;97735.91;5079036;28;20445;-78
2023/10/24 05:25:31;;;;;;;4.28;2.97;;;;;;;10.96;88.55;97728.47;5063431;28;20056;-78
2023/10/24 05:27:56;;;;;;;4.97;2.60;;;;;;;11.07;87.89;97732.63;5069451;28;20028;-80
2023/10/24 05:30:21;;;;;;;3.83;2.58;;;;;;;11.05;88.01;97748.13;5074855;28;20032;-80
2023/10/24 05:32:47;;;;;;;6.65;3.00;;;;;;;11.01;88.17;97736.41;5073238;28;20147;-80
2023/10/24 05:35:12;;;;;;;7.85;3.30;;;;;;;10.99;88.28;97729.75;5075597;28;20095;-80
2023/10/24 05:37:38;;;;;;;7.80;3.10;;;;;;;10.97;88.75;97729.25;5053578;28;20040;-80
2023/10/24 05:40:05;;;;;;;4.97;3.33;;;;;;;10.97;88.87;97723.91;5073559;28;21468;-79
2023/10/24 05:42:31;;;;;;;7.82;2.88;;;;;;;10.96;88.05;97727.66;5074135;28;20182;-79
2023/10/24 05:44:56;;;;;;;3.10;2.80;;;;;;;11.00;88.72;97731.38;5062988;28;20099;-79
2023/10/24 05:47:22;;;;;;;4.82;2.55;;;;;;;11.05;88.29;97734.00;5063072;28;20060;-79
2023/10/24 05:49:47;;;;;;;4.25;2.58;;;;;;;11.04;88.13;97743.88;5075677;28;22087;-79
2023/10/24 05:52:13;;;;;;;3.95;3.17;;;;;;;11.08;88.21;97744.13;5069183;28;20115;-79
2023/10/24 05:54:38;;;;;;;5.93;2.95;;;;;;;10.97;88.25;97722.03;5070585;28;20131;-79
2023/10/24 05:57:04;;;;;;;4.00;2.88;;;;;;;11.02;88.11;97727.34;5055986;28;20048;-79
2023/10/24 05:59:29;;;;;;;5.32;3.08;;;;;;;11.11;87.92;97730.22;5072252;28;20028;-79
2023/10/24 06:01:55;;;;;;;4.45;2.92;;;;;;;11.13;87.80;97728.88;5073789;28;20033;-79
2023/10/24 06:04:20;;;;;;;4.82;3.15;;;;;;;11.13;87.93;97723.53;5051081;28;20024;-79
2023/10/24 06:06:46;;;;;;;3.97;2.80;;;;;;;11.09;88.16;97722.50;5072739;28;20024;-79
2023/10/24 06:09:12;;;;;;;5.22;2.95;;;;;;;11.18;87.66;97720.03;5073579;28;20024;-79
2023/10/24 06:11:38;;;;;;;3.80;2.95;;;;;;;11.07;88.12;97721.94;5074563;28;20848;-79
2023/10/24 06:14:04;;;;;;;3.72;2.67;;;;;;;11.15;87.74;97726.72;5078124;28;20383;-79
2023/10/24 06:16:29;;;;;;;10.25;3.22;;;;;;;11.10;88.56;97733.94;5085893;28;20032;-79
2023/10/24 06:18:55;;;;;;;3.55;3.05;;;;;;;11.08;88.46;97734.25;5092237;28;20032;-79
2023/10/24 06:21:20;;;;;;;6.75;2.83;;;;;;;11.08;88.53;97725.41;5069049;28;20063;-79
2023/10/24 06:23:45;;;;;;;3.53;2.70;;;;;;;11.14;88.44;97740.31;5078320;28;20528;-79
2023/10/24 06:26:15;;;;;;;4.05;3.03;;;;;;;11.16;88.06;97740.88;5061919;28;20055;-79
2023/10/24 06:28:41;;;;;;;4.40;3.13;;;;;;;11.13;87.99;97738.75;5086367;28;20036;-79
2023/10/24 06:31:07;;;;;;;3.95;3.33;;;;;;;11.12;87.95;97735.28;5070479;28;20424;-79
2023/10/24 06:33:32;;;;;;;5.60;2.78;;;;;;;11.17;88.20;97734.44;5067343;28;20115;-79
2023/10/24 06:36:00;;;;;;;4.05;3.42;;;;;;;11.15;87.97;97734.72;5069296;28;20031;-79
2023/10/24 06:38:25;;;;;;;3.17;2.53;;;;;;;11.18;88.21;97720.03;5070466;28;20537;-79
2023/10/24 06:40:51;;;;;;;4.57;2.75;;;;;;;11.12;88.75;97716.56;5050806;28;20037;-78
2023/10/24 06:43:17;;;;;;;4.93;2.70;;;;;;;11.11;88.38;97692.81;5072098;28;20529;-79
2023/10/24 06:45:45;;;;;;;4.85;2.95;;;;;;;11.20;87.73;97707.97;5053168;28;20760;-79
2023/10/24 06:48:11;;;;;;;3.47;2.45;;;;;;;11.26;87.37;97719.41;5070404;28;20054;-79
2023/10/24 06:50:38;;;;;;;4.82;2.70;;;;;;;11.26;87.63;97722.88;5069091;28;20029;-79
2023/10/24 06:53:03;;;;;;;3.40;2.83;;;;;;;11.15;88.38;97716.03;5073520;28;20028;-79
2023/10/24 06:55:29;;;;;;;3.78;3.28;;;;;;;11.21;88.15;97722.91;5043212;28;20054;-79
2023/10/24 06:57:55;;;;;;;6.95;3.67;;;;;;;10.97;90.49;97707.88;5057121;28;20039;-79
2023/10/24 07:00:22;;;;;;;4.95;3.05;;;;;;;11.06;90.17;97709.69;5080384;28;20833;-79
2023/10/24 07:02:48;;;;;;;6.30;3.08;;;;;;;11.15;89.78;97715.22;5076654;28;20110;-79
2023/10/24 07:05:13;;;;;;;4.45;2.50;;;;;;;11.31;87.64;97720.16;5070613;28;20962;-80
2023/10/24 07:07:39;;;;;;;5.32;2.70;;;;;;;11.32;87.56;97718.28;5072189;28;20030;-80
2023/10/24 07:10:06;;;;;;;4.28;2.75;;;;;;;11.22;88.56;97713.84;5070621;28;20033;-79
2023/10/24 07:12:32;;;;;;;7.90;3.95;;;;;;;11.18;88.71;97695.97;5071100;28;20024;-79
2023/10/24 07:14:58;;;;;;;6.15;2.60;;;;;;;11.24;88.50;97689.50;5066223;28;20121;-79
2023/10/24 07:17:24;;;;;;;3.08;2.72;;;;;;;11.32;87.67;97704.94;5069309;28;20024;-79
2023/10/24 07:19:49;;;;;;;3.75;2.30;;;;;;;11.40;87.88;97711.56;5064113;28;20623;-79
2023/10/24 07:22:15;;;;;;;3.80;2.75;;;;;;;11.32;87.35;97691.56;5067486;28;20040;-79
2023/10/24 07:24:40;;;;;;;4.75;2.60;;;;;;;11.43;87.30;97706.44;5077877;28;20122;-79
2023/10/24 07:27:05;;;;;;;4.20;2.45;;;;;;;11.44;87.03;97710.72;5069699;28;20503;-79
2023/10/24 07:29:31;;;;;;;5.38;3.85;;;;;;;11.37;87.79;97694.19;5079816;28;20040;-79
2023/10/24 07:31:57;;;;;;;3.35;2.75;;;;;;;11.42;87.39;97696.03;5063555;28;20070;-79
2023/10/24 07:34:23;;;;;;;5.28;4.25;;;;;;;11.47;88.04;97707.47;5069471;28;20038;-79
2023/10/24 07:36:48;;;;;;;5.90;2.85;;;;;;;11.51;87.13;97699.69;5069465;28;20024;-79
2023/10/24 07:39:14;;;;;;;3.88;3.47;;;;;;;11.50;87.38;97696.22;5068875;28;20036;-79
2023/10/24 07:41:39;;;;;;;6.05;3.17;;;;;;;11.54;87.16;97696.44;5051088;28;20032;-79
2023/10/24 07:44:05;;;;;;;3.78;3.17;;;;;;;11.53;87.23;97686.84;5071731;28;20037;-79
2023/10/24 07:46:31;;;;;;;5.93;3.50;;;;;;;11.52;87.58;97696.72;5061029;28;20029;-79
2023/10/24 07:48:57;;;;;;;4.20;2.83;;;;;;;11.43;88.39;97692.25;5069930;28;20036;-78
2023/10/24 07:51:22;;;;;;;6.43;3.53;;;;;;;11.49;87.64;97693.84;5071312;28;20042;-79
2023/10/24 07:53:48;;;;;;;3.15;2.67;;;;;;;11.55;87.58;97695.38;5053572;28;20087;-79
2023/10/24 07:56:13;;;;;;;6.25;3.13;;;;;;;11.59;87.96;97699.06;5068282;28;20032;-79
2023/10/24 07:58:38;;;;;;;5.93;3.08;;;;;;;11.60;87.85;97698.78;5060718;28;20028;-79
2023/10/24 08:01:04;;;;;;;9.70;3.88;;;;;;;11.54;87.97;97694.56;5087295;28;20036;-79
2023/10/24 08:03:29;;;;;;;4.28;2.75;;;;;;;11.55;88.02;97687.34;5063618;28;20149;-79
2023/10/24 08:05:55;;;;;;;5.30;3.47;;;;;;;11.57;88.74;97696.69;5066499;28;20032;-79
2023/10/24 08:08:20;;;;;;;4.45;3.35;;;;;;;11.62;88.45;97693.94;5066836;28;20032;-79
2023/10/24 08:10:45;;;;;;;6.45;3.58;;;;;;;11.63;88.05;97692.06;5071138;28;20131;-79
2023/10/24 08:13:11;;;;;;;6.40;3.33;;;;;;;11.69;87.66;97699.78;5070180;28;20035;-79
2023/10/24 08:15:36;;;;;;;5.07;3.80;;;;;;;11.79;87.70;97709.59;5058607;28;20035;-79
2023/10/24 08:18:03;;;;;;;5.60;2.85;;;;;;;11.80;87.26;97690.56;5069527;28;20098;-79
2023/10/24 08:20:28;;;;;;;7.60;3.35;;;;;;;11.73;87.80;97705.38;5050543;28;20043;-79
2023/10/24 08:22:54;;;;;;;8.88;2.97;;;;;;;11.73;87.61;97706.16;5078990;28;20079;-79
2023/10/24 08:25:20;;;;;;;4.25;3.00;;;;;;;11.76;87.78;97713.63;5071227;28;20039;-79
2023/10/24 08:27:45;;;;;;;6.63;3.67;;;;;;;11.73;88.20;97708.81;5079365;28;20744;-79
2023/10/24 08:30:11;;;;;;;3.55;3.05;;;;;;;11.72;88.08;97712.59;5051040;28;20032;-79
2023/10/24 08:32:36;;;;;;;8.13;3.58;;;;;;;11.73;88.27;97706.16;5064026;28;20443;-78
2023/10/24 08:35:01;;;;;;;5.85;3.00;;;;;;;11.80;88.01;97700.47;5077579;28;20441;-79
2023/10/24 08:37:27;;;;;;;6.28;3.88;;;;;;;11.83;88.03;97713.28;5067097;28;20028;-79
2023/10/24 08:39:54;;;;;;;8.00;4.03;;;;;;;11.81;88.41;97708.22;5072163;28;20027;-79
2023/10/24 08:42:19;;;;;;;5.20;3.22;;;;;;;11.74;88.46;97704.28;5069853;28;20032;-79
2023/10/24 08:44:45;;;;;;;4.43;3.55;;;;;;;11.80;88.29;97706.63;5060300;28;20445;-79
2023/10/24 08:47:13;;;;;;;3.92;3.33;;;;;;;11.91;88.29;97701.94;5067795;28;20070;-79
2023/10/24 08:49:39;;;;;;;5.13;3.78;;;;;;;11.93;87.91;97705.94;5069298;28;20043;-79
2023/10/24 08:52:05;;;;;;;7.47;3.85;;;;;;;11.88;88.17;97691.84;5072037;28;20468;-79
2023/10/24 08:54:31;;;;;;;5.40;3.67;;;;;;;11.94;88.53;97702.19;5075729;28;20029;-79
2023/10/24 08:56:58;;;;;;;6.43;4.32;;;;;;;11.90;88.67;97700.38;5069455;28;20856;-79
2023/10/24 08:59:29;;;;;;;5.32;3.20;;;;;;;11.96;88.50;97699.22;5073198;28;20032;-79
2023/10/24 09:01:54;;;;;;;4.65;3.60;;;;;;;11.96;88.41;97684.00;5085118;28;20032;-79
2023/10/24 09:04:20;;;;;;;6.07;3.40;;;;;;;11.94;88.12;97688.84;5067197;28;20038;-79
2023/10/24 09:06:46;;;;;;;5.43;2.97;;;;;;;12.02;88.54;97693.53;5076268;28;20032;-79
2023/10/24 09:09:12;;;;;;;6.20;3.55;;;;;;;12.01;88.57;97697.28;5064919;28;20051;-79
2023/10/24 09:12:11;;;;;;;4.60;3.85;;;;;;;12.05;88.51;97694.84;5055948;28;20056;-79
2023/10/24 09:14:36;;;;;;;5.15;3.40;;;;;;;12.05;88.15;97692.19;5079562;28;20035;-79
2023/10/24 09:17:05;;;;;;;3.55;2.90;;;;;;;12.14;88.10;97713.75;5070220;28;20368;-79
2023/10/24 09:19:30;;;;;;;7.60;3.78;;;;;;;12.20;87.70;97713.38;5090052;28;20024;-79
2023/10/24 09:21:56;;;;;;;5.22;3.33;;;;;;;12.24;87.72;97719.75;5093292;28;20069;-78
2023/10/24 09:24:22;;;;;;;5.50;3.10;;;;;;;12.13;87.95;97699.56;5084627;28;20031;-79
2023/10/24 09:26:55;;;;;;;5.90;3.63;;;;;;;12.20;88.27;97720.63;5073431;28;20033;-79
2023/10/24 09:29:24;;;;;;;6.10;3.47;;;;;;;12.24;87.58;97713.59;5077601;28;20070;-79
2023/10/24 09:31:50;;;;;;;4.38;3.85;;;;;;;12.23;88.00;97715.47;5074207;28;20032;-79
2023/10/24 09:34:16;;;;;;;5.10;3.47;;;;;;;12.21;89.17;97717.63;5049213;28;20020;-79
2023/10/24 09:36:43;;;;;;;4.47;4.07;;;;;;;12.23;88.73;97712.03;5072294;28;20036;-79
2023/10/24 09:39:10;;;;;;;5.68;3.50;;;;;;;12.20;88.47;97708.03;5084307;28;20031;-79
2023/10/24 09:41:35;;;;;;;9.02;3.35;;;;;;;12.25;87.46;97710.66;5084997;28;20036;-79
2023/10/24 09:44:02;;;;;;;7.97;4.18;;;;;;;12.26;88.32;97708.75;5069546;28;20080;-79
2023/10/24 09:46:29;;;;;;;5.50;3.30;;;;;;;12.29;88.17;97714.34;5084647;28;20035;-79
2023/10/24 09:48:55;;;;;;;9.40;4.40;;;;;;;12.33;88.22;97707.34;5084556;28;20127;-79
2023/10/24 09:51:23;;;;;;;4.95;3.33;;;;;;;12.30;88.34;97689.16;5076826;28;20041;-79
2023/10/24 09:53:49;;;;;;;4.25;3.05;;;;;;;12.30;88.22;97699.06;5074041;28;20484;-79
2023/10/24 09:56:16;;;;;;;5.18;3.80;;;;;;;12.35;87.82;97693.66;5071075;28;20024;-79
2023/10/24 09:58:43;;;;;;;3.85;3.33;;;;;;;12.36;87.69;97695.28;5072390;28;20647;-79
2023/10/24 10:01:12;;;;;;;3.90;3.30;;;;;;;12.32;87.63;97686.22;5063354;28;20043;-79
2023/10/24 10:03:37;;;;;;;6.18;3.53;;;;;;;12.36;87.45;97685.34;5071285;28;20043;-79
2023/10/24 10:06:05;;;;;;;4.80;3.47;;;;;;;12.33;87.48;97682.47;5073756;28;20032;-79
2023/10/24 10:08:37;;;;;;;3.45;3.00;;;;;;;12.28;87.40;97686.00;5080901;28;20028;-79
2023/10/24 10:11:06;;;;;;;6.05;3.85;;;;;;;12.38;87.01;97693.91;5087903;28;20051;-79
2023/10/24 10:13:53;;;;;;;7.43;4.13;;;;;;;12.27;87.48;97681.75;5089024;28;20047;-79
2023/10/24 10:16:43;;;;;;;9.98;3.55;;;;;;;12.27;87.56;97675.59;5081632;28;20038;-79
2023/10/24 10:19:42;;;;;;;6.18;3.90;;;;;;;12.35;86.93;97669.59;5078765;28;20028;-79
2023/10/24 10:22:27;;;;;;;5.47;3.88;;;;;;;12.34;87.12;97666.09;5080942;28;20020;-79
2023/10/24 10:25:12;;;;;;;5.97;3.47;;;;;;;12.37;87.19;97660.19;5079627;28;20036;-79
2023/10/24 10:28:13;;;;;;;4.07;3.30;;;;;;;12.34;87.23;97657.31;5078562;28;20023;-79
2023/10/24 10:30:59;;;;;;;5.72;3.42;;;;;;;12.29;87.00;97655.50;5083340;28;20024;-79
2023/10/24 10:33:25;;;;;;;7.38;4.00;;;;;;;12.33;87.42;97650.34;5081645;28;20024;-79
2023/10/24 10:35:58;;;;;;;4.03;3.47;;;;;;;12.25;87.51;97659.03;5083542;28;20043;-79
2023/10/24 10:38:40;;;;;;;4.30;3.58;;;;;;;12.29;87.42;97665.38;5081325;28;20036;-79
2023/10/24 10:41:23;;;;;;;5.85;3.45;;;;;;;12.28;87.47;97664.59;5071186;28;20062;-79
2023/10/24 10:43:54;;;;;;;4.30;3.42;;;;;;;12.23;87.31;97643.25;5082139;28;20028;-79
2023/10/24 10:46:23;;;;;;;5.88;3.72;;;;;;;12.28;87.32;97650.41;5055526;28;20032;-79
2023/10/24 10:48:49;;;;;;;7.00;3.80;;;;;;;12.29;86.99;97660.03;5064598;28;20116;-79
2023/10/24 10:51:26;;;;;;;8.57;5.25;;;;;;;12.23;87.58;97651.25;5068016;28;20503;-79
2023/10/24 10:54:20;;;;;;;7.93;4.10;;;;;;;12.27;87.82;97664.88;5073207;28;20028;-79
2023/10/24 10:56:48;;;;;;;4.82;4.30;;;;;;;12.17;88.19;97662.31;5083474;28;20062;-79
2023/10/24 10:59:31;;;;;;;6.63;4.20;;;;;;;12.24;87.98;97660.09;5078849;28;20036;-79
2023/10/24 11:02:10;;;;;;;4.40;4.00;;;;;;;12.23;88.15;97653.16;5089092;28;20048;-79
2023/10/24 11:04:36;;;;;;;7.97;4.18;;;;;;;12.13;87.92;97645.25;5087237;28;20058;-79
2023/10/24 11:07:04;;;;;;;6.53;3.83;;;;;;;12.17;88.27;97641.72;5082431;28;20024;-80
2023/10/24 11:09:35;;;;;;;4.82;3.70;;;;;;;12.17;88.35;97647.06;5063072;28;20029;-79
2023/10/24 11:12:26;;;;;;;4.50;4.07;;;;;;;12.19;88.00;97644.91;5081702;28;20028;-79
2023/10/24 11:15:07;;;;;;;6.70;4.00;;;;;;;12.21;87.91;97647.31;5068336;28;20079;-79
2023/10/24 11:17:33;;;;;;;7.45;4.25;;;;;;;12.23;88.12;97623.75;5076809;28;20034;-79
2023/10/24 11:19:59;;;;;;;5.68;4.22;;;;;;;12.31;87.97;97636.47;5079891;28;20036;-79
2023/10/24 11:22:25;;;;;;;5.03;4.18;;;;;;;12.20;88.20;97626.97;5065984;28;20109;-80
2023/10/24 11:24:51;;;;;;;5.53;4.10;;;;;;;12.21;88.73;97629.34;5073682;28;20035;-79
2023/10/24 11:27:17;;;;;;;6.68;4.40;;;;;;;12.29;88.14;97628.72;5073341;28;20024;-80
2023/10/24 11:29:43;;;;;;;4.32;3.80;;;;;;;12.24;88.35;97626.13;5085014;28;20032;-80
2023/10/24 11:32:08;;;;;;;5.30;3.95;;;;;;;12.25;87.92;97611.69;5086937;28;20047;-79
2023/10/24 11:34:34;;;;;;;4.32;3.92;;;;;;;12.22;88.71;97622.94;5084876;28;20028;-80